Time;durP1;ratioP1;P1;durP2;ratioP2;P2;SDS_P1;SDS_P2;PMS_P1;PMS_P2;Temp;Humidity;BMP_temperature;BMP_pressure;BME280_temperature;BME280_humidity;BME280_pressure;Samples;Min_cycle;Max_cycle;Signal;HPM_P1;HPM_P2
2023/07/05 00:00:49;;;;;;;;;;;;;;;23.29;62.16;101053.57;107655;1254;111103;-61
2023/07/05 00:03:38;;;;;;;;;;;;;;;23.26;61.96;101059.06;107544;1251;111868;-63
2023/07/05 00:06:06;;;;;;;;;;;;;;;23.26;61.78;101058.72;107556;1251;106774;-62
2023/07/05 00:08:34;;;;;;;;;;;;;;;23.28;61.60;101053.02;107576;1250;97713;-60
2023/07/05 00:11:04;;;;;;;;;;;;;;;23.31;61.46;101046.21;107574;1254;97818;-61
2023/07/05 00:13:33;;;;;;;;;;;;;;;23.33;61.34;101042.11;107603;1251;112138;-61
2023/07/05 00:16:04;;;;;;;;;;;;;;;23.30;61.44;101044.52;107614;1251;109847;-59
2023/07/05 00:18:33;;;;;;;;;;;;;;;23.24;61.39;101046.95;107561;1251;108471;-61
2023/07/05 00:21:02;;;;;;;;;;;;;;;23.22;61.19;101053.70;107607;1251;97694;-63
2023/07/05 00:23:32;;;;;;;;;;;;;;;23.21;61.00;101053.61;107613;1251;97701;-61
2023/07/05 00:26:00;;;;;;;;;;;;;;;23.21;61.08;101059.86;107585;1251;110922;-61
2023/07/05 00:28:29;;;;;;;;;;;;;;;23.21;61.23;101057.09;107633;1251;109552;-61
2023/07/05 00:30:57;;;;;;;;;;;;;;;23.15;60.96;101054.05;107620;1251;107367;-61
2023/07/05 00:33:25;;;;;;;;;;;;;;;23.09;60.83;101056.13;107596;1253;97831;-63
2023/07/05 00:35:54;;;;;;;;;;;;;;;23.07;60.89;101057.83;107633;1251;97718;-61
2023/07/05 00:38:24;;;;;;;;;;;;;;;23.03;61.73;101060.23;107635;1251;111390;-61
2023/07/05 00:40:52;;;;;;;;;;;;;;;22.88;61.85;101059.17;107607;1251;109686;-62
2023/07/05 00:43:20;;;;;;;;;;;;;;;22.75;61.81;101058.50;107611;1255;108456;-63
2023/07/05 00:45:50;;;;;;;;;;;;;;;22.73;61.67;101053.41;107584;1251;98574;-62
2023/07/05 00:48:22;;;;;;;;;;;;;;;22.76;61.59;101056.66;107649;1251;97812;-60
2023/07/05 00:50:54;;;;;;;;;;;;;;;22.80;61.59;101053.11;107623;1251;111196;-61
2023/07/05 00:53:24;;;;;;;;;;;;;;;22.85;61.47;101052.14;107619;1251;109870;-61
2023/07/05 00:55:55;;;;;;;;;;;;;;;22.88;61.39;101053.27;107650;1251;107554;-62
2023/07/05 00:58:24;;;;;;;;;;;;;;;22.91;61.43;101055.21;107614;1253;97773;-61
2023/07/05 01:00:53;;;;;;;;;;;;;;;22.94;61.47;101056.09;107630;1254;97686;-62
2023/07/05 01:03:24;;;;;;;;;;;;;;;22.98;61.48;101054.92;107636;1251;112126;-64
2023/07/05 01:05:55;;;;;;;;;;;;;;;23.01;61.26;101048.95;107669;1251;109823;-62
2023/07/05 01:08:26;;;;;;;;;;;;;;;23.04;61.26;101048.79;107629;1256;107214;-63
2023/07/05 01:10:59;;;;;;;;;;;;;;;23.05;61.17;101044.82;107558;1253;97823;-63
2023/07/05 01:13:31;;;;;;;;;;;;;;;23.04;60.94;101044.02;107658;1254;97694;-63
2023/07/05 01:16:17;;;;;;;;;;;;;;;23.04;61.30;101043.65;107657;1255;112887;-61
2023/07/05 01:18:50;;;;;;;;;;;;;;;23.02;61.47;101041.55;107638;1254;108659;-64
2023/07/05 01:21:29;;;;;;;;;;;;;;;23.01;61.54;101046.27;107632;1252;107310;-62
2023/07/05 01:24:02;;;;;;;;;;;;;;;22.98;61.39;101049.77;107590;1254;97712;-62
2023/07/05 01:26:46;;;;;;;;;;;;;;;22.95;61.42;101047.98;107627;1254;97844;-61
2023/07/05 01:29:43;;;;;;;;;;;;;;;22.91;61.53;101051.33;107641;1255;112237;-62
2023/07/05 01:32:29;;;;;;;;;;;;;;;22.88;61.79;101054.59;107507;1254;109848;-60
2023/07/05 01:35:09;;;;;;;;;;;;;;;22.82;62.44;101059.78;107614;1251;108191;-61
2023/07/05 01:37:42;;;;;;;;;;;;;;;22.77;62.67;101061.67;107595;1251;97828;-61
2023/07/05 01:40:20;;;;;;;;;;;;;;;22.78;62.89;101056.69;107593;1253;97711;-61
2023/07/05 01:42:50;;;;;;;;;;;;;;;22.80;62.73;101052.55;107603;1253;111409;-62
2023/07/05 01:45:35;;;;;;;;;;;;;;;22.83;62.94;101044.46;107630;1254;109554;-61
2023/07/05 01:48:06;;;;;;;;;;;;;;;22.86;62.75;101043.17;107642;1251;107373;-61
2023/07/05 01:50:39;;;;;;;;;;;;;;;22.86;62.61;101043.70;107654;1251;97821;-62
2023/07/05 01:53:15;;;;;;;;;;;;;;;22.86;62.43;101046.14;107600;1251;97902;-60
2023/07/05 01:55:52;;;;;;;;;;;;;;;22.83;62.78;101046.64;107644;1251;112219;-61
2023/07/05 01:58:24;;;;;;;;;;;;;;;22.80;62.95;101045.02;107635;1251;109718;-61
2023/07/05 02:00:52;;;;;;;;;;;;;;;22.78;63.19;101045.73;107689;1251;108259;-60
2023/07/05 02:03:23;;;;;;;;;;;;;;;22.75;63.02;101041.88;107614;1251;97795;-61
2023/07/05 02:05:53;;;;;;;;;;;;;;;22.73;62.92;101040.88;107669;1254;97721;-60
2023/07/05 02:08:27;;;;;;;;;;;;;;;22.71;62.84;101038.80;107588;1254;111787;-61
2023/07/05 02:10:56;;;;;;;;;;;;;;;22.68;63.08;101037.20;107578;1256;110247;-62
2023/07/05 02:13:25;;;;;;;;;;;;;;;22.67;63.51;101033.15;107624;1255;107751;-61
2023/07/05 02:15:53;;;;;;;;;;;;;;;22.66;63.20;101039.85;107636;1253;97806;-63
2023/07/05 02:18:21;;;;;;;;;;;;;;;22.64;63.24;101045.72;107614;1254;97697;-62
2023/07/05 02:20:50;;;;;;;;;;;;;;;22.63;63.61;101043.19;107594;1251;111615;-62
2023/07/05 02:23:19;;;;;;;;;;;;;;;22.60;63.81;101045.00;107634;1254;109445;-62
2023/07/05 02:25:51;;;;;;;;;;;;;;;22.59;64.08;101047.82;107583;1254;107859;-62
2023/07/05 02:28:19;;;;;;;;;;;;;;;22.57;64.07;101053.27;107638;1251;97701;-60
2023/07/05 02:30:47;;;;;;;;;;;;;;;22.58;64.27;101048.84;107635;1251;97789;-61
2023/07/05 02:33:15;;;;;;;;;;;;;;;22.59;64.25;101043.89;107617;1251;111854;-61
2023/07/05 02:35:46;;;;;;;;;;;;;;;22.59;64.57;101039.67;107599;1251;109251;-62
2023/07/05 02:38:15;;;;;;;;;;;;;;;22.59;64.56;101037.19;107536;1251;107366;-61
2023/07/05 02:40:49;;;;;;;;;;;;;;;22.59;64.51;101041.04;107513;1251;97893;-61
2023/07/05 02:43:17;;;;;;;;;;;;;;;22.57;64.59;101040.77;107525;1254;97828;-60
2023/07/05 02:45:45;;;;;;;;;;;;;;;22.56;64.73;101042.55;107624;1256;112943;-61
2023/07/05 02:48:13;;;;;;;;;;;;;;;22.57;64.88;101043.16;107628;1251;109100;-61
2023/07/05 02:50:42;;;;;;;;;;;;;;;22.58;64.84;101042.39;107558;1251;107362;-61
2023/07/05 02:53:10;;;;;;;;;;;;;;;22.58;64.79;101041.54;107608;1252;97825;-62
2023/07/05 02:55:38;;;;;;;;;;;;;;;22.56;64.73;101040.52;107562;1252;97960;-60
2023/07/05 02:58:06;;;;;;;;;;;;;;;22.54;64.91;101039.02;107580;1254;112966;-60
2023/07/05 03:00:35;;;;;;;;;;;;;;;22.53;64.96;101041.33;107582;1254;109318;-60
2023/07/05 03:03:03;;;;;;;;;;;;;;;22.50;65.18;101043.77;107606;1255;108286;-61
2023/07/05 03:05:31;;;;;;;;;;;;;;;22.49;65.31;101042.51;107545;1251;97701;-59
2023/07/05 03:07:59;;;;;;;;;;;;;;;22.51;65.66;101041.74;107635;1251;97697;-62
2023/07/05 03:10:27;;;;;;;;;;;;;;;22.54;65.47;101041.11;107612;1251;111778;-61
2023/07/05 03:12:56;;;;;;;;;;;;;;;22.55;65.19;101038.42;107659;1254;109883;-64
2023/07/05 03:15:27;;;;;;;;;;;;;;;22.55;65.44;101043.14;107552;1254;107963;-59
2023/07/05 03:17:55;;;;;;;;;;;;;;;22.54;65.64;101043.23;107561;1255;97704;-59
2023/07/05 03:20:23;;;;;;;;;;;;;;;22.51;65.86;101043.89;107599;1251;97735;-61
2023/07/05 03:22:51;;;;;;;;;;;;;;;22.50;65.97;101043.86;107625;1251;111864;-61
2023/07/05 03:25:19;;;;;;;;;;;;;;;22.50;66.24;101046.64;107608;1251;109531;-62
2023/07/05 03:27:47;;;;;;;;;;;;;;;22.49;66.31;101044.69;107595;1251;108006;-60
2023/07/05 03:30:16;;;;;;;;;;;;;;;22.50;66.30;101046.52;107588;1251;97818;-60
2023/07/05 03:32:44;;;;;;;;;;;;;;;22.56;66.36;101043.23;107627;1251;97713;-60
2023/07/05 03:35:15;;;;;;;;;;;;;;;22.58;66.25;101043.44;107583;1251;111859;-61
2023/07/05 03:37:44;;;;;;;;;;;;;;;22.63;65.99;101041.38;107581;1251;109599;-61
2023/07/05 03:40:12;;;;;;;;;;;;;;;22.67;66.12;101043.14;107603;1251;107526;-64
2023/07/05 03:42:40;;;;;;;;;;;;;;;22.70;66.36;101041.16;107522;1251;97815;-63
2023/07/05 03:45:09;;;;;;;;;;;;;;;22.70;66.36;101042.02;107583;1251;97818;-61
2023/07/05 03:47:37;;;;;;;;;;;;;;;22.74;66.57;101044.20;107588;1251;111897;-61
2023/07/05 03:50:07;;;;;;;;;;;;;;;22.79;66.59;101044.95;107605;1251;109685;-61
2023/07/05 03:52:36;;;;;;;;;;;;;;;22.86;66.46;101044.15;107562;1251;108151;-61
2023/07/05 03:55:05;;;;;;;;;;;;;;;22.88;66.38;101041.51;107595;1254;97913;-61
2023/07/05 03:57:33;;;;;;;;;;;;;;;22.90;67.49;101041.66;107680;1251;97716;-62
2023/07/05 04:00:01;;;;;;;;;;;;;;;22.88;67.93;101044.02;107695;1254;111610;-63
2023/07/05 04:02:39;;;;;;;;;;;;;;;22.84;67.47;101048.01;107599;1254;109785;-62
2023/07/05 04:05:07;;;;;;;;;;;;;;;22.83;67.25;101045.68;107543;1251;107502;-61
2023/07/05 04:07:35;;;;;;;;;;;;;;;22.89;67.16;101049.73;107534;1251;97812;-63
2023/07/05 04:10:03;;;;;;;;;;;;;;;22.94;67.08;101048.30;107564;1250;97938;-61
2023/07/05 04:12:31;;;;;;;;;;;;;;;23.01;66.80;101048.75;107621;1251;110487;-62
2023/07/05 04:15:00;;;;;;;;;;;;;;;23.07;66.64;101050.35;107578;1251;109226;-63
2023/07/05 04:17:31;;;;;;;;;;;;;;;23.14;66.43;101046.64;107616;1254;107857;-62
2023/07/05 04:19:59;;;;;;;;;;;;;;;23.23;66.35;101043.66;107626;1252;97700;-62
2023/07/05 04:22:30;;;;;;;;;;;;;;;23.34;66.61;101043.02;107630;1255;97963;-61
2023/07/05 04:24:59;;;;;;;;;;;;;;;23.48;66.19;101040.52;107609;1251;111456;-63
2023/07/05 04:27:27;;;;;;;;;;;;;;;23.62;65.96;101042.41;107536;1251;109609;-62
2023/07/05 04:29:56;;;;;;;;;;;;;;;23.72;65.48;101046.41;107556;1251;107873;-60
2023/07/05 04:32:24;;;;;;;;;;;;;;;23.85;65.08;101049.92;107535;1251;97812;-61
2023/07/05 04:34:52;;;;;;;;;;;;;;;23.96;64.72;101048.75;107545;1251;97950;-62
2023/07/05 04:37:20;;;;;;;;;;;;;;;24.04;64.49;101045.46;107559;1251;111613;-63
2023/07/05 04:40:00;;;;;;;;;;;;;;;24.11;64.09;101041.03;107545;1254;110080;-63
2023/07/05 04:42:30;;;;;;;;;;;;;;;24.20;64.05;101042.12;107571;1253;107746;-62
2023/07/05 04:44:59;;;;;;;;;;;;;;;24.31;63.79;101048.10;107591;1254;97904;-62
2023/07/05 04:47:31;;;;;;;;;;;;;;;24.38;62.80;101053.64;107583;1254;97676;-60
2023/07/05 04:49:59;;;;;;;;;;;;;;;24.41;62.42;101057.14;107586;1256;111810;-62
2023/07/05 04:52:28;;;;;;;;;;;;;;;24.47;62.53;101062.30;107532;1251;110021;-64
2023/07/05 04:54:56;;;;;;;;;;;;;;;24.55;62.24;101060.20;107553;1254;107535;-62
2023/07/05 04:57:26;;;;;;;;;;;;;;;24.57;61.97;101067.64;107578;1254;97873;-61
2023/07/05 05:00:05;;;;;;;;;;;;;;;24.55;61.73;101067.36;107668;1254;97700;-62
2023/07/05 05:02:34;;;;;;;;;;;;;;;24.54;61.69;101067.10;107631;1251;112415;-61
2023/07/05 05:05:02;;;;;;;;;;;;;;;24.52;61.69;101063.95;107657;1254;109068;-62
2023/07/05 05:07:30;;;;;;;;;;;;;;;24.47;61.50;101062.34;107609;1254;107590;-61
2023/07/05 05:09:59;;;;;;;;;;;;;;;24.46;61.81;101067.55;107600;1257;97816;-64
2023/07/05 05:12:27;;;;;;;;;;;;;;;24.44;61.76;101065.61;107593;1251;97994;-61
2023/07/05 05:14:56;;;;;;;;;;;;;;;24.45;61.88;101065.56;107646;1257;110292;-62
2023/07/05 05:17:25;;;;;;;;;;;;;;;24.44;61.68;101062.58;107569;1257;109104;-62
2023/07/05 05:19:53;;;;;;;;;;;;;;;24.40;61.71;101062.55;107570;1257;107812;-60
2023/07/05 05:22:22;;;;;;;;;;;;;;;24.36;62.20;101069.55;107624;1253;97797;-62
2023/07/05 05:24:50;;;;;;;;;;;;;;;24.17;62.37;101068.06;107592;1254;97854;-59
2023/07/05 05:27:18;;;;;;;;;;;;;;;23.97;62.76;101076.39;107685;1254;110636;-60
2023/07/05 05:29:46;;;;;;;;;;;;;;;23.80;63.54;101080.11;107726;1251;108595;-62
2023/07/05 05:32:14;;;;;;;;;;;;;;;23.70;63.77;101078.20;107539;1251;108163;-62
2023/07/05 05:34:42;;;;;;;;;;;;;;;23.69;63.56;101070.90;107575;1254;97819;-62
2023/07/05 05:37:11;;;;;;;;;;;;;;;23.74;63.66;101070.17;107639;1251;97830;-61
2023/07/05 05:39:40;;;;;;;;;;;;;;;23.78;63.86;101074.42;107600;1251;111816;-60
2023/07/05 05:42:11;;;;;;;;;;;;;;;23.77;63.95;101075.05;107615;1251;109057;-61
2023/07/05 05:44:40;;;;;;;;;;;;;;;23.75;64.10;101074.31;107552;1254;108684;-61
2023/07/05 05:47:08;;;;;;;;;;;;;;;23.78;64.43;101072.98;107600;1256;97809;-60
2023/07/05 05:49:37;;;;;;;;;;;;;;;23.83;63.97;101068.10;107548;1256;97927;-61
2023/07/05 05:52:06;;;;;;;;;;;;;;;23.91;63.95;101068.00;107679;1255;111183;-60
2023/07/05 05:54:35;;;;;;;;;;;;;;;24.02;63.75;101069.36;107632;1254;108990;-61
2023/07/05 05:57:03;;;;;;;;;;;;;;;24.14;63.84;101077.38;107612;1256;108297;-61
2023/07/05 05:59:34;;;;;;;;;;;;;;;24.26;63.82;101078.12;107626;1256;97815;-61
2023/07/05 06:02:02;;;;;;;;;;;;;;;24.40;63.92;101079.98;107617;1255;97712;-61
2023/07/05 06:04:30;;;;;;;;;;;;;;;24.51;63.63;101074.88;107590;1251;112317;-61
2023/07/05 06:06:58;;;;;;;;;;;;;;;24.63;63.36;101071.71;107612;1256;109685;-61
2023/07/05 06:09:27;;;;;;;;;;;;;;;24.76;62.91;101073.55;107488;1256;108527;-61
2023/07/05 06:11:55;;;;;;;;;;;;;;;24.88;62.82;101070.78;107570;1256;97672;-61
2023/07/05 06:14:25;;;;;;;;;;;;;;;24.93;62.19;101070.70;107647;1254;97835;-62
2023/07/05 06:16:57;;;;;;;;;;;;;;;24.99;61.94;101068.48;107489;1251;112693;-62
2023/07/05 06:19:25;;;;;;;;;;;;;;;25.10;62.04;101065.89;107490;1251;108977;-60
2023/07/05 06:21:53;;;;;;;;;;;;;;;25.22;61.63;101065.94;107500;1253;108191;-61
2023/07/05 06:24:22;;;;;;;;;;;;;;;25.34;61.32;101060.70;107515;1257;97818;-60
2023/07/05 06:26:50;;;;;;;;;;;;;;;25.48;60.94;101063.04;107552;1253;97897;-62
2023/07/05 06:29:18;;;;;;;;;;;;;;;25.59;60.94;101056.98;107555;1251;111809;-60
2023/07/05 06:31:46;;;;;;;;;;;;;;;25.72;60.27;101064.08;107533;1257;109217;-61
2023/07/05 06:34:14;;;;;;;;;;;;;;;25.83;60.12;101064.88;107555;1251;107299;-61
2023/07/05 06:36:42;;;;;;;;;;;;;;;25.90;60.03;101064.83;107516;1251;97711;-62
2023/07/05 06:39:11;;;;;;;;;;;;;;;26.02;60.26;101065.65;107516;1257;97828;-61
2023/07/05 06:41:39;;;;;;;;;;;;;;;26.15;59.83;101064.92;107516;1257;111954;-64
2023/07/05 06:44:08;;;;;;;;;;;;;;;26.27;59.70;101065.20;107598;1252;109309;-61
2023/07/05 06:46:36;;;;;;;;;;;;;;;26.42;58.99;101068.48;107617;1256;107260;-63
2023/07/05 06:49:07;;;;;;;;;;;;;;;26.51;58.33;101069.52;107530;1254;97850;-62
2023/07/05 06:51:39;;;;;;;;;;;;;;;26.60;58.32;101065.40;107658;1254;97835;-63
2023/07/05 06:54:08;;;;;;;;;;;;;;;26.71;58.19;101067.77;107610;1251;111871;-61
2023/07/05 06:56:37;;;;;;;;;;;;;;;26.84;57.90;101059.14;107643;1257;109164;-62
2023/07/05 06:59:05;;;;;;;;;;;;;;;26.97;58.03;101055.91;107649;1253;108297;-62
2023/07/05 07:01:33;;;;;;;;;;;;;;;27.11;57.89;101056.94;107571;1251;97723;-62
2023/07/05 07:04:05;;;;;;;;;;;;;;;27.20;57.76;101052.48;107597;1251;97912;-62
2023/07/05 07:06:33;;;;;;;;;;;;;;;27.23;56.85;101052.05;107586;1254;111024;-65
2023/07/05 07:09:04;;;;;;;;;;;;;;;27.16;56.31;101052.00;107547;1260;109463;-60
2023/07/05 07:11:32;;;;;;;;;;;;;;;27.15;56.52;101047.85;107622;1257;107781;-62
2023/07/05 07:14:01;;;;;;;;;;;;;;;27.21;56.76;101042.88;107590;1254;97828;-61
2023/07/05 07:16:29;;;;;;;;;;;;;;;27.30;56.62;101045.15;107643;1254;97830;-61
2023/07/05 07:18:59;;;;;;;;;;;;;;;27.35;56.43;101045.90;107646;1254;111870;-61
2023/07/05 07:21:27;;;;;;;;;;;;;;;27.42;56.19;101046.00;107629;1251;109977;-62
2023/07/05 07:23:55;;;;;;;;;;;;;;;27.46;55.80;101047.99;107668;1257;108058;-62
2023/07/05 07:26:24;;;;;;;;;;;;;;;27.47;55.18;101045.81;107596;1253;97822;-60
2023/07/05 07:28:54;;;;;;;;;;;;;;;27.44;55.60;101046.20;107668;1254;97719;-62
2023/07/05 07:31:26;;;;;;;;;;;;;;;27.39;55.43;101044.17;107632;1254;111676;-60
2023/07/05 07:33:55;;;;;;;;;;;;;;;27.39;55.53;101043.80;107702;1256;109912;-62
2023/07/05 07:36:24;;;;;;;;;;;;;;;27.46;55.61;101047.17;107509;1254;107996;-61
2023/07/05 07:38:53;;;;;;;;;;;;;;;27.49;55.50;101047.25;107619;1254;97831;-61
2023/07/05 07:41:28;;;;;;;;;;;;;;;27.61;55.50;101053.57;107676;1257;97811;-62
2023/07/05 07:43:59;;;;;;;;;;;;;;;27.77;55.18;101049.98;107659;1251;111386;-64
2023/07/05 07:46:28;;;;;;;;;;;;;;;27.92;55.07;101050.11;107661;1253;109978;-61
2023/07/05 07:48:57;;;;;;;;;;;;;;;28.08;54.86;101050.45;107627;1255;107306;-62
2023/07/05 07:51:29;;;;;;;;;;;;;;;28.24;54.69;101051.48;107510;1254;97826;-62
2023/07/05 07:54:00;;;;;;;;;;;;;;;28.32;54.63;101047.30;107615;1254;97928;-61
2023/07/05 07:56:29;;;;;;;;;;;;;;;28.24;55.02;101053.35;107659;1254;112239;-60
2023/07/05 07:59:00;;;;;;;;;;;;;;;28.11;55.25;101050.73;107642;1254;109215;-61
2023/07/05 08:01:29;;;;;;;;;;;;;;;27.97;55.46;101051.98;107574;1254;107898;-61
2023/07/05 08:03:59;;;;;;;;;;;;;;;27.92;55.79;101050.02;106772;1254;1118583;-62
2023/07/05 08:06:31;;;;;;;;;;;;;;;27.89;56.44;101047.66;107582;1256;97687;-62
2023/07/05 08:09:00;;;;;;;;;;;;;;;27.91;56.68;101051.41;107672;1253;111359;-61
2023/07/05 08:11:29;;;;;;;;;;;;;;;27.92;57.12;101052.23;107644;1254;110093;-62
2023/07/05 08:13:57;;;;;;;;;;;;;;;28.05;56.86;101056.73;107646;1254;107840;-62
2023/07/05 08:16:25;;;;;;;;;;;;;;;28.19;56.67;101064.65;107604;1254;97877;-62
2023/07/05 08:18:54;;;;;;;;;;;;;;;28.29;56.35;101067.67;107645;1254;99100;-60
2023/07/05 08:21:22;;;;;;;;;;;;;;;28.38;56.15;101066.57;107653;1254;111455;-61
2023/07/05 08:23:50;;;;;;;;;;;;;;;28.48;55.71;101066.20;107661;1256;109403;-61
2023/07/05 08:26:18;;;;;;;;;;;;;;;28.64;55.78;101061.70;107593;1255;108253;-61
2023/07/05 08:28:46;;;;;;;;;;;;;;;28.85;55.61;101067.12;107600;1254;97701;-62
2023/07/05 08:31:14;;;;;;;;;;;;;;;29.06;54.95;101064.63;107553;1254;97829;-61
2023/07/05 08:33:44;;;;;;;;;;;;;;;29.22;54.58;101063.37;107589;1254;111617;-61
2023/07/05 08:36:28;;;;;;;;;;;;;;;29.42;53.85;101064.19;107544;1254;108543;-60
2023/07/05 08:38:56;;;;;;;;;;;;;;;29.54;53.73;101071.27;107575;1254;107671;-61
2023/07/05 08:41:27;;;;;;;;;;;;;;;29.74;53.61;101074.40;107505;1254;97949;-59
2023/07/05 08:44:09;;;;;;;;;;;;;;;29.90;53.03;101073.13;107548;1254;97886;-62
2023/07/05 08:46:38;;;;;;;;;;;;;;;30.11;52.80;101070.65;107564;1254;112170;-60
2023/07/05 08:49:10;;;;;;;;;;;;;;;30.29;52.18;101068.91;107558;1251;109037;-61
2023/07/05 08:51:40;;;;;;;;;;;;;;;30.48;51.35;101070.88;107488;1254;108298;-61
2023/07/05 08:54:11;;;;;;;;;;;;;;;30.56;51.23;101072.20;107639;1252;97835;-62
2023/07/05 08:56:43;;;;;;;;;;;;;;;30.65;51.20;101069.79;107663;1254;97819;-61
2023/07/05 08:59:32;;;;;;;;;;;;;;;30.69;50.48;101072.42;107657;1254;110698;-62
2023/07/05 09:02:00;;;;;;;;;;;;;;;30.44;50.06;101068.22;107651;1254;109072;-62
2023/07/05 09:04:32;;;;;;;;;;;;;;;30.30;50.31;101067.30;107593;1256;108369;-62
2023/07/05 09:07:20;;;;;;;;;;;;;;;30.38;50.38;101064.89;107631;1254;97883;-62
2023/07/05 09:09:48;;;;;;;;;;;;;;;30.40;50.85;101066.47;107690;1254;98180;-62
2023/07/05 09:12:39;;;;;;;;;;;;;;;30.59;50.71;101062.67;107550;1254;111360;-62
2023/07/05 09:15:14;;;;;;;;;;;;;;;30.79;50.15;101063.08;107259;1254;110968;-61
2023/07/05 09:17:45;;;;;;;;;;;;;;;30.96;49.72;101066.58;107602;1256;108112;-61
2023/07/05 09:20:22;;;;;;;;;;;;;;;31.14;49.45;101062.67;107616;1254;97818;-61
2023/07/05 09:22:51;;;;;;;;;;;;;;;31.28;48.16;101060.65;107609;1254;97946;-61
2023/07/05 09:25:22;;;;;;;;;;;;;;;31.60;47.82;101058.05;107659;1254;112217;-60
2023/07/05 09:28:07;;;;;;;;;;;;;;;31.99;48.12;101057.86;107607;1251;109542;-61
2023/07/05 09:30:36;;;;;;;;;;;;;;;32.42;47.79;101056.10;107565;1257;108888;-60
2023/07/05 09:33:21;;;;;;;;;;;;;;;32.66;45.89;101055.61;107621;1254;97890;-60
2023/07/05 09:35:51;;;;;;;;;;;;;;;32.73;45.35;101048.81;107629;1254;97838;-60
2023/07/05 09:38:23;;;;;;;;;;;;;;;32.87;45.69;101047.31;107660;1253;111828;-60
2023/07/05 09:40:54;;;;;;;;;;;;;;;33.11;43.93;101041.61;107629;1256;108662;-61
2023/07/05 09:43:25;;;;;;;;;;;;;;;33.26;44.31;101040.39;107584;1252;108318;-60
2023/07/05 09:46:00;;;;;;;;;;;;;;;33.56;43.95;101038.36;107560;1254;97951;-59
2023/07/05 09:48:30;;;;;;;;;;;;;;;33.81;43.63;101037.93;107606;1251;97233;-61
2023/07/05 09:51:03;;;;;;;;;;;;;;;33.97;42.70;101032.34;107533;1253;111387;-61
2023/07/05 09:53:38;;;;;;;;;;;;;;;34.10;42.29;101028.90;107673;1254;109035;-60
2023/07/05 09:56:10;;;;;;;;;;;;;;;34.07;41.25;101024.17;107592;1254;107557;-61
2023/07/05 09:58:40;;;;;;;;;;;;;;;34.03;41.92;101026.16;107640;1256;97973;-60
2023/07/05 10:01:23;;;;;;;;;;;;;;;34.21;40.50;101021.80;107635;1254;97729;-61
2023/07/05 10:03:57;;;;;;;;;;;;;;;34.37;41.13;101024.19;107673;1256;111743;-61
2023/07/05 10:06:26;;;;;;;;;;;;;;;34.55;40.60;101016.80;107679;1251;108329;-60
2023/07/05 10:08:56;;;;;;;;;;;;;;;34.63;40.73;101017.06;107661;1251;107857;-60
2023/07/05 10:11:27;;;;;;;;;;;;;;;34.88;40.68;101012.69;107661;1254;97828;-61
2023/07/05 10:14:03;;;;;;;;;;;;;;;35.02;37.37;101010.68;107693;1253;99431;-60
2023/07/05 10:16:52;;;;;;;;;;;;;;;34.96;37.14;101011.36;107697;1251;110276;-61
2023/07/05 10:19:21;;;;;;;;;;;;;;;34.91;36.94;101011.36;107631;1251;110024;-61
2023/07/05 10:21:56;;;;;;;;;;;;;;;35.15;37.78;101010.70;107666;1254;107093;-61
2023/07/05 10:24:25;;;;;;;;;;;;;;;35.80;36.39;101003.70;107627;1254;97880;-61
2023/07/05 10:27:08;;;;;;;;;;;;;;;36.35;33.74;101000.36;107657;1254;97707;-61
2023/07/05 10:29:40;;;;;;;;;;;;;;;36.74;34.98;100997.98;107665;1254;111376;-63
2023/07/05 10:32:15;;;;;;;;;;;;;;;37.35;35.45;100993.55;107610;1251;109403;-64
2023/07/05 10:34:44;;;;;;;;;;;;;;;37.98;34.52;100988.26;107615;1251;107725;-61
2023/07/05 10:37:25;;;;;;;;;;;;;;;38.54;33.31;100980.48;107644;1253;97809;-62
2023/07/05 10:39:54;;;;;;;;;;;;;;;38.97;33.32;100972.48;107671;1253;97826;-62
2023/07/05 10:42:23;;;;;;;;;;;;;;;39.48;31.78;100972.45;107462;1255;112075;-60
2023/07/05 10:44:52;;;;;;;;;;;;;;;39.84;30.77;100964.61;107670;1254;109215;-63
2023/07/05 10:47:21;;;;;;;;;;;;;;;40.36;29.87;100962.61;107611;1252;108171;-60
2023/07/05 10:49:51;;;;;;;;;;;;;;;40.82;29.70;100955.15;107623;1251;98404;-61
2023/07/05 10:52:21;;;;;;;;;;;;;;;41.34;27.56;100954.22;107574;1251;97684;-64
2023/07/05 10:55:07;;;;;;;;;;;;;;;41.63;26.87;100949.42;107640;1251;112277;-63
2023/07/05 10:57:38;;;;;;;;;;;;;;;41.93;25.03;100950.33;107546;1251;109009;-61
2023/07/05 11:00:21;;;;;;;;;;;;;;;42.00;25.82;100945.81;107639;1251;108237;-65
2023/07/05 11:03:03;;;;;;;;;;;;;;;42.11;26.15;100945.73;107592;1251;97804;-61
2023/07/05 11:05:39;;;;;;;;;;;;;;;42.12;25.91;100951.10;107536;1251;97805;-62
2023/07/05 11:08:15;;;;;;;;;;;;;;;41.58;26.76;100950.92;107495;1251;112373;-61
2023/07/05 11:10:43;;;;;;;;;;;;;;;41.30;27.47;100951.17;107509;1251;109177;-60
2023/07/05 11:13:13;;;;;;;;;;;;;;;41.05;27.22;100947.65;107577;1251;107820;-60
2023/07/05 11:15:42;;;;;;;;;;;;;;;40.49;27.74;100945.40;107606;1251;97804;-65
2023/07/05 11:18:18;;;;;;;;;;;;;;;39.83;28.48;100948.48;107585;1251;98007;-63
2023/07/05 11:20:49;;;;;;;;;;;;;;;39.31;29.12;100946.33;107488;1251;111526;-63
2023/07/05 11:23:37;;;;;;;;;;;;;;;39.03;28.66;100941.77;107493;1251;110427;-61
2023/07/05 11:26:06;;;;;;;;;;;;;;;39.83;28.03;100935.25;107468;1251;107995;-65
2023/07/05 11:28:39;;;;;;;;;;;;;;;40.77;26.89;100929.41;107533;1251;97823;-62
2023/07/05 11:31:07;;;;;;;;;;;;;;;41.01;24.88;100926.16;107554;1250;97822;-61
2023/07/05 11:33:36;;;;;;;;;;;;;;;40.71;25.89;100925.36;107616;1254;111831;-61
2023/07/05 11:36:24;;;;;;;;;;;;;;;40.72;25.71;100920.45;107498;1251;109095;-64
2023/07/05 11:38:56;;;;;;;;;;;;;;;40.03;25.74;100920.80;107533;1251;108465;-61
2023/07/05 11:41:28;;;;;;;;;;;;;;;39.61;26.09;100918.00;107502;1251;97796;-62
2023/07/05 11:44:01;;;;;;;;;;;;;;;39.00;26.95;100914.30;107705;1251;97862;-62
2023/07/05 11:46:38;;;;;;;;;;;;;;;38.76;27.87;100912.05;107657;1251;110998;-61
2023/07/05 11:49:25;;;;;;;;;;;;;;;39.45;27.19;100902.27;107582;1251;109426;-61
2023/07/05 11:51:56;;;;;;;;;;;;;;;40.47;26.66;100891.35;107641;1254;108069;-62
2023/07/05 11:54:33;;;;;;;;;;;;;;;41.45;25.40;100887.00;107620;1251;98463;-61
2023/07/05 11:57:03;;;;;;;;;;;;;;;42.12;24.54;100880.30;107688;1256;97887;-60
2023/07/05 11:59:34;;;;;;;;;;;;;;;42.45;23.88;100878.88;107606;1251;111114;-62
2023/07/05 12:02:08;;;;;;;;;;;;;;;42.48;22.79;100871.45;107616;1251;108448;-62
2023/07/05 12:04:38;;;;;;;;;;;;;;;42.61;23.65;100874.88;107602;1254;109215;-61
2023/07/05 12:07:08;;;;;;;;;;;;;;;42.99;23.06;100866.08;107555;1256;97833;-62
2023/07/05 12:09:39;;;;;;;;;;;;;;;43.15;22.58;100860.92;107673;1254;97873;-62
2023/07/05 12:12:11;;;;;;;;;;;;;;;42.91;23.35;100853.55;107649;1254;112268;-64
2023/07/05 12:14:41;;;;;;;;;;;;;;;42.55;23.42;100850.84;107711;1254;110188;-62
2023/07/05 12:17:12;;;;;;;;;;;;;;;42.21;23.42;100848.06;107636;1254;108280;-63
2023/07/05 12:19:40;;;;;;;;;;;;;;;41.62;23.73;100848.27;107610;1254;97937;-61
2023/07/05 12:22:19;;;;;;;;;;;;;;;41.08;24.06;100843.27;107696;1253;97819;-62
2023/07/05 12:24:50;;;;;;;;;;;;;;;41.18;24.00;100841.70;107494;1254;111112;-62
2023/07/05 12:27:27;;;;;;;;;;;;;;;41.40;24.48;100839.47;107648;1251;109221;-62
2023/07/05 12:29:57;;;;;;;;;;;;;;;42.02;23.81;100836.13;107640;1251;108654;-63
2023/07/05 12:32:28;;;;;;;;;;;;;;;41.91;23.54;100832.89;107653;1251;97900;-61
2023/07/05 12:35:26;;;;;;;;;;;;;;;42.29;23.88;100834.70;107498;1253;97834;-62
2023/07/05 12:37:56;;;;;;;;;;;;;;;42.12;23.30;100826.58;107481;1254;112357;-63
2023/07/05 12:40:27;;;;;;;;;;;;;;;41.99;24.03;100825.02;107677;1251;109712;-63